Time;durP1;ratioP1;P1;durP2;ratioP2;P2;SDS_P1;SDS_P2;PMS_P1;PMS_P2;Temp;Humidity;BMP_temperature;BMP_pressure;BME280_temperature;BME280_humidity;BME280_pressure;Samples;Min_cycle;Max_cycle;Signal;HPM_P1;HPM_P2
2021/08/19 00:03:19;;;;;;;0.10;0.10;;;;;;;14.36;93.61;101021.13;10521632;28;20325;-63
2021/08/19 00:08:19;;;;;;;0.10;0.10;;;;;;;14.34;93.92;101021.31;10529753;28;20032;-63
2021/08/19 00:13:20;;;;;;;0.10;0.10;;;;;;;14.36;93.69;101021.13;10517122;28;20032;-64
2021/08/19 00:18:20;;;;;;;0.00;0.00;;;;;;;14.37;93.84;101028.13;10514924;28;20266;-64
2021/08/19 00:23:21;;;;;;;0.10;0.10;;;;;;;14.34;93.79;101017.78;10518904;28;20019;-63
2021/08/19 00:28:21;;;;;;;0.10;0.10;;;;;;;14.31;93.18;101010.97;10525629;28;20035;-63
2021/08/19 00:33:23;;;;;;;0.10;0.10;;;;;;;14.31;93.68;101008.28;10512281;28;20016;-63
2021/08/19 00:38:23;;;;;;;0.10;0.10;;;;;;;14.36;93.57;101008.56;10527729;28;20031;-63
2021/08/19 00:43:25;;;;;;;0.10;0.10;;;;;;;14.40;93.28;101009.88;10527762;28;20012;-63
2021/08/19 00:48:28;;;;;;;0.10;0.10;;;;;;;14.43;93.12;101011.38;10528579;28;20024;-63
2021/08/19 00:53:29;;;;;;;0.10;0.10;;;;;;;14.43;93.34;101014.03;10526900;28;20028;-63
2021/08/19 00:58:30;;;;;;;0.10;0.10;;;;;;;14.43;93.16;101016.72;10508577;28;20493;-63
2021/08/19 01:03:30;;;;;;;0.10;0.10;;;;;;;14.41;93.46;101016.91;10507430;28;20115;-63
2021/08/19 01:08:33;;;;;;;0.10;0.10;;;;;;;14.42;93.16;101023.06;10489177;28;20371;-63
2021/08/19 01:13:34;;;;;;;0.10;0.10;;;;;;;14.39;92.85;101024.28;10490004;28;20487;-63
2021/08/19 01:18:44;;;;;;;0.10;0.10;;;;;;;14.39;92.44;101026.13;10491099;28;20032;-63
2021/08/19 01:23:45;;;;;;;0.10;0.10;;;;;;;14.38;92.67;101017.25;10489068;28;20016;-64
2021/08/19 01:28:47;;;;;;;0.10;0.10;;;;;;;14.37;92.11;101015.59;10490698;28;20494;-64
2021/08/19 01:33:48;;;;;;;0.10;0.10;;;;;;;14.38;91.68;101021.78;10507179;28;20026;-64
2021/08/19 01:38:50;;;;;;;0.10;0.10;;;;;;;14.36;91.89;101016.59;10492218;28;20020;-64
2021/08/19 01:43:51;;;;;;;0.10;0.10;;;;;;;14.36;91.81;101030.00;10489538;28;20023;-63
2021/08/19 01:48:52;;;;;;;0.10;0.10;;;;;;;14.34;92.35;101040.06;10489782;28;20020;-64
2021/08/19 01:53:52;;;;;;;0.10;0.10;;;;;;;14.30;92.69;101032.56;10489642;28;20036;-63
2021/08/19 01:58:56;;;;;;;0.10;0.10;;;;;;;14.26;93.85;101040.13;10492150;28;20021;-63
2021/08/19 02:03:56;;;;;;;0.10;0.10;;;;;;;14.20;94.05;101044.34;10505650;28;20028;-63
2021/08/19 02:08:57;;;;;;;0.10;0.10;;;;;;;14.14;94.34;101049.59;10528668;28;20028;-63
2021/08/19 02:13:57;;;;;;;0.10;0.10;;;;;;;14.11;94.58;101055.28;10492623;28;20085;-64
2021/08/19 02:18:58;;;;;;;0.10;0.10;;;;;;;14.04;94.51;101039.91;10488794;28;20028;-64
2021/08/19 02:23:58;;;;;;;0.10;0.10;;;;;;;13.98;95.26;101040.63;10507626;28;20028;-63
2021/08/19 02:28:58;;;;;;;0.10;0.10;;;;;;;13.93;95.11;101051.03;10528163;28;20025;-63
2021/08/19 02:33:59;;;;;;;0.10;0.10;;;;;;;13.91;95.31;101061.09;10508423;28;20063;-63
2021/08/19 02:39:02;;;;;;;0.03;0.03;;;;;;;13.89;95.87;101064.94;10515855;28;20749;-64
2021/08/19 02:44:02;;;;;;;0.10;0.10;;;;;;;13.84;95.78;101062.78;10527672;28;20425;-63
2021/08/19 02:49:03;;;;;;;0.10;0.10;;;;;;;13.79;95.42;101055.28;10493506;28;20029;-63
2021/08/19 02:54:03;;;;;;;0.10;0.10;;;;;;;13.74;94.81;101041.59;10488266;28;20021;-63
2021/08/19 02:59:03;;;;;;;0.00;0.00;;;;;;;13.71;94.89;101046.47;10515004;22;20406;-66
2021/08/19 03:04:04;;;;;;;0.10;0.10;;;;;;;13.66;95.04;101025.56;10531550;28;20028;-65
2021/08/19 03:09:04;;;;;;;0.10;0.10;;;;;;;13.66;94.97;101038.13;10531947;28;20287;-66
2021/08/19 03:14:05;;;;;;;0.10;0.10;;;;;;;13.64;94.93;101029.41;10528523;28;20027;-65
2021/08/19 03:19:05;;;;;;;0.10;0.10;;;;;;;13.65;95.24;101037.28;10535310;28;20065;-65
2021/08/19 03:24:06;;;;;;;0.10;0.10;;;;;;;13.66;95.41;101038.13;10534516;28;20027;-65
2021/08/19 03:29:06;;;;;;;0.10;0.10;;;;;;;13.68;95.12;101025.41;10531819;28;20013;-65
2021/08/19 03:34:06;;;;;;;0.10;0.10;;;;;;;13.69;94.85;101014.50;10512500;28;20024;-65
2021/08/19 03:39:07;;;;;;;0.10;0.10;;;;;;;13.73;95.16;101025.69;10525209;28;20089;-65
2021/08/19 03:44:13;;;;;;;0.10;0.10;;;;;;;13.74;94.68;101014.81;10516073;28;20020;-66
2021/08/19 03:49:13;;;;;;;0.10;0.10;;;;;;;13.77;95.12;101021.66;10534431;28;20047;-66
2021/08/19 03:54:14;;;;;;;0.10;0.10;;;;;;;13.77;95.44;101008.28;10533993;28;20071;-65
2021/08/19 03:59:14;;;;;;;0.00;0.00;;;;;;;13.78;95.67;101020.66;10534597;28;20019;-65
2021/08/19 04:04:15;;;;;;;0.03;0.03;;;;;;;13.76;95.12;101020.00;10510935;28;20449;-65
2021/08/19 04:09:15;;;;;;;0.10;0.10;;;;;;;13.77;94.72;101033.22;10498818;28;20038;-65
2021/08/19 04:14:15;;;;;;;0.10;0.10;;;;;;;13.80;94.62;101042.72;10514926;28;20063;-65
2021/08/19 04:19:18;;;;;;;0.10;0.10;;;;;;;13.84;94.71;101049.41;10520193;28;20383;-65
2021/08/19 04:24:19;;;;;;;0.10;0.10;;;;;;;13.86;95.09;101046.56;10526146;28;20332;-65
2021/08/19 04:29:19;;;;;;;0.10;0.10;;;;;;;13.91;94.95;101047.69;10533569;28;20028;-65
2021/08/19 04:34:19;;;;;;;0.00;0.00;;;;;;;13.93;95.16;101051.03;10533280;28;20046;-66
2021/08/19 04:39:27;;;;;;;0.10;0.10;;;;;;;13.93;95.09;101051.03;10523527;28;20030;-65
2021/08/19 04:44:28;;;;;;;0.10;0.10;;;;;;;13.92;95.84;101053.88;10532523;28;20023;-65
2021/08/19 04:49:28;;;;;;;0.10;0.10;;;;;;;13.95;95.68;101053.53;10533110;28;20039;-65
2021/08/19 04:54:28;;;;;;;0.10;0.10;;;;;;;13.97;95.71;101063.06;10520345;28;20723;-65
2021/08/19 04:59:29;;;;;;;0.10;0.10;;;;;;;14.00;95.78;101051.16;10491091;28;20028;-65
2021/08/19 05:04:29;;;;;;;0.10;0.10;;;;;;;14.04;95.99;101063.19;10490516;28;20024;-65
2021/08/19 05:09:29;;;;;;;0.03;0.03;;;;;;;14.07;95.77;101078.91;10474827;28;20024;-65
2021/08/19 05:14:30;;;;;;;0.10;0.10;;;;;;;14.09;95.99;101086.78;10490229;28;20036;-65
2021/08/19 05:19:30;;;;;;;0.10;0.10;;;;;;;14.13;96.10;101091.59;10491640;28;20742;-65
2021/08/19 05:24:40;;;;;;;0.10;0.10;;;;;;;14.14;95.94;101095.13;10489708;28;20028;-66
2021/08/19 05:29:40;;;;;;;0.10;0.10;;;;;;;14.18;96.27;101109.81;10490175;28;20159;-66
2021/08/19 05:34:40;;;;;;;0.10;0.10;;;;;;;14.21;96.19;101102.25;10470612;28;20119;-66
2021/08/19 05:39:41;;;;;;;0.10;0.10;;;;;;;14.29;95.84;101108.59;10490605;28;20021;-66
2021/08/19 05:44:41;;;;;;;0.07;0.07;;;;;;;14.38;96.17;101104.84;10474099;28;20266;-66
2021/08/19 05:49:43;;;;;;;0.00;0.00;;;;;;;14.45;95.27;101101.28;10490429;28;20463;-65
2021/08/19 05:54:44;;;;;;;0.10;0.10;;;;;;;14.59;95.72;101101.56;10489618;28;20030;-66
2021/08/19 05:59:44;;;;;;;0.00;0.00;;;;;;;14.70;95.35;101115.38;10490324;28;20498;-65
2021/08/19 06:04:44;;;;;;;0.10;0.10;;;;;;;14.76;94.91;101110.31;10487556;28;20495;-65
2021/08/19 06:09:45;;;;;;;0.10;0.10;;;;;;;14.80;94.65;101119.66;10490419;28;20016;-65
2021/08/19 06:14:45;;;;;;;0.10;0.10;;;;;;;14.88;94.54;101114.22;10489827;28;20024;-65
2021/08/19 06:19:45;;;;;;;0.10;0.10;;;;;;;14.90;94.50;101121.09;10490930;28;20016;-65
2021/08/19 06:24:46;;;;;;;0.05;0.05;;;;;;;14.83;92.90;101111.25;10490211;28;20433;-65
2021/08/19 06:29:46;;;;;;;0.10;0.10;;;;;;;14.80;92.20;101120.50;10490185;28;20448;-65
2021/08/19 06:34:46;;;;;;;0.08;0.08;;;;;;;14.79;91.75;101128.72;10492532;28;20395;-65
2021/08/19 06:39:47;;;;;;;0.10;0.10;;;;;;;14.81;92.36;101124.03;10499474;28;20383;-65
2021/08/19 06:44:51;;;;;;;0.10;0.10;;;;;;;14.87;92.45;101116.09;10481945;28;20047;-65
2021/08/19 06:49:52;;;;;;;0.10;0.10;;;;;;;14.93;91.65;101126.09;10498567;28;20452;-65
2021/08/19 06:54:52;;;;;;;0.10;0.10;;;;;;;15.06;91.02;101116.59;10497423;28;20058;-65
2021/08/19 06:59:53;;;;;;;0.10;0.10;;;;;;;15.26;90.50;101120.44;10498868;28;20028;-66
2021/08/19 07:04:54;;;;;;;0.10;0.10;;;;;;;15.58;90.84;101115.75;10497446;28;20475;-66
2021/08/19 07:09:55;;;;;;;0.10;0.10;;;;;;;15.85;89.48;101111.59;10498387;28;20017;-66
2021/08/19 07:14:55;;;;;;;0.05;0.05;;;;;;;16.09;88.42;101121.22;10497638;28;20036;-65
2021/08/19 07:19:56;;;;;;;0.10;0.10;;;;;;;16.29;88.60;101119.59;10498065;28;20375;-66
2021/08/19 07:24:56;;;;;;;0.10;0.10;;;;;;;16.46;87.56;101127.41;10500273;28;20027;-66
2021/08/19 07:29:57;;;;;;;0.10;0.10;;;;;;;16.63;87.08;101134.19;10496666;28;20157;-65
2021/08/19 07:34:57;;;;;;;0.00;0.00;;;;;;;16.79;85.98;101146.59;10500506;28;20263;-66
2021/08/19 07:39:57;;;;;;;0.00;0.00;;;;;;;16.75;86.54;101151.50;10500229;28;20020;-66
2021/08/19 07:44:57;;;;;;;0.10;0.10;;;;;;;16.55;87.61;101161.22;10496876;28;20035;-65
2021/08/19 07:49:58;;;;;;;0.00;0.00;;;;;;;16.37;88.65;101155.41;10502743;28;20027;-66
2021/08/19 07:54:58;;;;;;;0.10;0.10;;;;;;;16.22;89.04;101167.03;10489433;28;20036;-66
2021/08/19 07:59:58;;;;;;;0.10;0.10;;;;;;;16.20;89.76;101162.88;10474222;28;20027;-66
2021/08/19 08:04:59;;;;;;;0.00;0.00;;;;;;;16.22;90.21;101172.41;10491068;28;20285;-66
2021/08/19 08:10:00;;;;;;;0.10;0.10;;;;;;;16.30;90.50;101169.63;10496735;28;20012;-66
2021/08/19 08:15:00;;;;;;;0.00;0.00;;;;;;;16.46;89.21;101175.78;10494446;28;20024;-66
2021/08/19 08:20:01;;;;;;;0.10;0.10;;;;;;;16.66;88.30;101168.78;10496992;28;20287;-65
2021/08/19 08:25:01;;;;;;;0.00;0.00;;;;;;;17.05;87.12;101172.94;10496473;28;20490;-66
2021/08/19 08:30:03;;;;;;;0.03;0.03;;;;;;;17.98;84.94;101168.22;10496316;28;20073;-66
2021/08/19 08:35:04;;;;;;;0.00;0.00;;;;;;;18.32;83.39;101175.44;10500685;28;20044;-66
2021/08/19 08:40:05;;;;;;;0.00;0.00;;;;;;;18.40;82.25;101166.31;10501771;28;20039;-66
2021/08/19 08:45:06;;;;;;;0.10;0.10;;;;;;;18.44;81.96;101177.53;10510392;28;20055;-65
2021/08/19 08:50:07;;;;;;;0.00;0.00;;;;;;;18.36;82.61;101181.25;10534875;28;20048;-66
2021/08/19 08:55:09;;;;;;;0.08;0.08;;;;;;;18.41;81.78;101186.84;10510232;22;20028;-64
2021/08/19 09:00:10;;;;;;;0.10;0.10;;;;;;;18.39;80.91;101197.03;10486599;28;20036;-64
2021/08/19 09:05:21;;;;;;;0.00;0.00;;;;;;;18.35;79.94;101198.44;10471175;28;20049;-64
2021/08/19 09:10:24;;;;;;;0.00;0.00;;;;;;;18.29;80.69;101202.78;10450264;28;20037;-64
2021/08/19 09:15:25;;;;;;;0.00;0.00;;;;;;;18.25;82.26;101201.53;10483904;28;20499;-63
2021/08/19 09:20:32;;;;;;;0.00;0.00;;;;;;;18.28;81.44;101205.69;10439354;28;20051;-64
2021/08/19 09:25:40;;;;;;;0.00;0.00;;;;;;;18.24;81.01;101207.97;10449550;28;20079;-64
2021/08/19 09:30:48;;;;;;;0.10;0.10;;;;;;;18.25;79.61;101206.91;10459275;28;20387;-64
2021/08/19 09:35:49;;;;;;;0.10;0.10;;;;;;;18.16;79.95;101210.00;10451255;28;20017;-64
2021/08/19 09:41:18;;;;;;;0.10;0.10;;;;;;;18.06;78.89;101204.94;10451667;28;20022;-65
2021/08/19 09:46:37;;;;;;;0.00;0.00;;;;;;;18.01;80.72;101210.13;10464520;28;20395;-64
2021/08/19 09:51:38;;;;;;;0.00;0.00;;;;;;;18.10;80.17;101207.06;10490324;28;20034;-65
2021/08/19 09:56:38;;;;;;;0.10;0.10;;;;;;;18.18;79.79;101200.69;10490201;28;20095;-64
2021/08/19 10:01:38;;;;;;;0.10;0.10;;;;;;;18.24;79.92;101205.28;10477023;28;20021;-64
2021/08/19 10:06:39;;;;;;;0.10;0.10;;;;;;;18.24;79.50;101215.22;10478069;28;20539;-64
2021/08/19 10:11:44;;;;;;;0.00;0.00;;;;;;;18.33;80.16;101208.63;10497746;28;20053;-64
2021/08/19 10:16:46;;;;;;;0.00;0.00;;;;;;;18.53;79.47;101211.41;10487697;28;20506;-64
2021/08/19 10:21:52;;;;;;;0.00;0.00;;;;;;;18.67;80.40;101206.84;10497421;28;20061;-64
2021/08/19 10:27:11;;;;;;;0.00;0.00;;;;;;;18.77;78.36;101199.25;10492866;28;20040;-64
2021/08/19 10:32:38;;;;;;;0.00;0.00;;;;;;;18.94;77.67;101203.22;10492219;28;20056;-64
2021/08/19 10:37:45;;;;;;;0.10;0.10;;;;;;;19.69;79.16;101200.34;10471350;28;20021;-64
2021/08/19 10:42:47;;;;;;;0.00;0.00;;;;;;;20.36;75.17;101192.88;10474389;28;20392;-65
2021/08/19 10:47:48;;;;;;;0.00;0.00;;;;;;;20.78;73.02;101186.03;10484166;28;20027;-65
2021/08/19 10:52:48;;;;;;;0.00;0.00;;;;;;;21.05;71.47;101187.72;10496205;28;20043;-65
2021/08/19 10:57:54;;;;;;;0.00;0.00;;;;;;;21.05;70.61;101196.66;10473634;28;20407;-65
2021/08/19 11:02:56;;;;;;;0.08;0.08;;;;;;;20.69;68.98;101192.75;10454466;28;21390;-65
2021/08/19 11:08:01;;;;;;;0.00;0.00;;;;;;;20.33;70.56;101194.16;10464084;28;20028;-65
2021/08/19 11:13:09;;;;;;;0.00;0.00;;;;;;;20.83;71.21;101185.38;10467799;28;20434;-65
2021/08/19 11:18:10;;;;;;;0.00;0.00;;;;;;;21.16;69.29;101195.13;10477671;28;20025;-64
2021/08/19 11:23:12;;;;;;;0.10;0.10;;;;;;;21.11;69.12;101206.63;10484595;28;20451;-64
2021/08/19 11:28:17;;;;;;;0.00;0.00;;;;;;;20.74;69.78;101194.78;10471462;28;20017;-64
2021/08/19 11:33:23;;;;;;;0.10;0.10;;;;;;;20.41;70.96;101197.63;10494380;28;20356;-64
2021/08/19 11:38:26;;;;;;;0.00;0.00;;;;;;;20.51;70.90;101204.25;10495509;28;20052;-65
2021/08/19 11:43:28;;;;;;;0.08;0.08;;;;;;;20.70;70.49;101202.50;10484366;28;20017;-64
2021/08/19 11:48:29;;;;;;;0.00;0.00;;;;;;;20.84;69.03;101200.56;10483935;28;20484;-64
2021/08/19 11:53:30;;;;;;;0.00;0.00;;;;;;;20.78;68.08;101199.56;10487994;28;20025;-64
2021/08/19 11:58:30;;;;;;;0.00;0.00;;;;;;;20.87;68.55;101197.41;10487895;28;20456;-64
2021/08/19 12:03:36;;;;;;;0.10;0.10;;;;;;;20.87;69.59;101197.41;10472702;28;20012;-63
2021/08/19 12:08:39;;;;;;;0.00;0.00;;;;;;;20.96;69.45;101200.69;10492952;28;20020;-63
2021/08/19 12:13:40;;;;;;;0.10;0.10;;;;;;;21.40;68.98;101207.88;10493229;28;20024;-63
2021/08/19 12:18:40;;;;;;;0.10;0.10;;;;;;;21.91;67.45;101204.06;10492836;28;20115;-65
2021/08/19 12:23:42;;;;;;;0.00;0.00;;;;;;;22.09;65.53;101203.22;10457237;28;20472;-65
2021/08/19 12:28:56;;;;;;;0.00;0.00;;;;;;;22.26;67.23;101202.66;10434090;28;20098;-63
2021/08/19 12:34:02;;;;;;;0.00;0.00;;;;;;;22.63;66.50;101203.44;10467159;28;20021;-64
2021/08/19 12:39:18;;;;;;;0.00;0.00;;;;;;;22.93;65.51;101197.97;10492446;28;20026;-64
2021/08/19 12:44:21;;;;;;;0.00;0.00;;;;;;;22.79;63.42;101191.09;10469203;28;20016;-64
2021/08/19 12:49:25;;;;;;;0.00;0.00;;;;;;;22.42;64.61;101193.06;10469783;28;20094;-63
2021/08/19 12:54:26;;;;;;;0.10;0.10;;;;;;;22.08;66.75;101200.75;10478454;28;20025;-64
2021/08/19 12:59:26;;;;;;;0.00;0.00;;;;;;;21.66;66.16;101195.97;10481146;28;20017;-64
2021/08/19 13:04:26;;;;;;;0.00;0.00;;;;;;;21.47;68.55;101199.72;10468122;28;20027;-64
2021/08/19 13:09:27;;;;;;;0.00;0.00;;;;;;;21.41;69.84;101206.00;10457753;28;20021;-64
2021/08/19 13:14:27;;;;;;;0.00;0.00;;;;;;;21.27;68.91;101199.84;10481029;28;20053;-64
2021/08/19 13:19:27;;;;;;;0.05;0.05;;;;;;;21.20;71.56;101208.00;10490778;28;20129;-64
2021/08/19 13:24:28;;;;;;;0.10;0.10;;;;;;;21.18;71.51;101207.41;10487085;28;20548;-64
2021/08/19 13:29:28;;;;;;;0.00;0.00;;;;;;;21.14;71.51;101210.78;10480506;28;20029;-63
2021/08/19 13:34:28;;;;;;;0.00;0.00;;;;;;;21.17;70.96;101211.16;10470305;28;20671;-64
2021/08/19 13:39:29;;;;;;;0.00;0.00;;;;;;;21.21;71.46;101206.97;10481692;28;20020;-64
2021/08/19 13:44:29;;;;;;;0.00;0.00;;;;;;;21.23;72.00;101207.59;10447973;28;20032;-66
2021/08/19 13:49:30;;;;;;;0.00;0.00;;;;;;;21.22;72.38;101207.78;10447888;28;20029;-65
2021/08/19 13:54:30;;;;;;;0.10;0.10;;;;;;;21.02;70.59;101206.06;10471949;28;20029;-65
2021/08/19 13:59:35;;;;;;;0.10;0.10;;;;;;;20.74;72.28;101211.88;10482625;28;20268;-65
2021/08/19 14:04:35;;;;;;;0.10;0.10;;;;;;;20.61;73.49;101211.13;10488449;28;20490;-63
2021/08/19 14:09:35;;;;;;;0.00;0.00;;;;;;;20.54;73.95;101225.50;10490156;28;20020;-64
2021/08/19 14:14:36;;;;;;;0.10;0.10;;;;;;;20.56;73.63;101219.88;10457940;28;20048;-64
2021/08/19 14:19:37;;;;;;;0.00;0.00;;;;;;;20.65;75.02;101223.97;10490221;28;20044;-63
2021/08/19 14:24:37;;;;;;;0.00;0.00;;;;;;;20.68;73.07;101225.44;10489147;28;20365;-62
2021/08/19 14:29:37;;;;;;;0.00;0.00;;;;;;;20.81;71.43;101222.66;10485194;28;20040;-61
2021/08/19 14:34:37;;;;;;;0.00;0.00;;;;;;;20.79;66.44;101225.56;10488073;28;20024;-63
2021/08/19 14:39:38;;;;;;;0.00;0.00;;;;;;;20.76;67.77;101225.19;10489861;28;20028;-63
2021/08/19 14:44:38;;;;;;;0.00;0.00;;;;;;;20.58;66.76;101236.72;10489039;28;20028;-64
2021/08/19 14:49:38;;;;;;;0.00;0.00;;;;;;;20.43;66.10;101239.69;10465517;28;20488;-63
2021/08/19 14:54:40;;;;;;;0.00;0.00;;;;;;;20.41;66.46;101241.75;10448579;28;20484;-64
2021/08/19 14:59:40;;;;;;;0.00;0.00;;;;;;;20.37;65.82;101245.13;10460868;28;20461;-63
2021/08/19 15:04:40;;;;;;;0.10;0.10;;;;;;;20.21;66.80;101246.41;10495579;28;20020;-63
2021/08/19 15:09:41;;;;;;;0.00;0.00;;;;;;;20.10;66.30;101246.03;10474835;28;20610;-62
2021/08/19 15:14:41;;;;;;;0.00;0.00;;;;;;;19.96;66.51;101252.50;10482579;28;20112;-63
2021/08/19 15:19:41;;;;;;;0.10;0.10;;;;;;;19.74;67.06;101245.66;10458081;28;20035;-64
2021/08/19 15:24:46;;;;;;;0.10;0.10;;;;;;;19.50;67.84;101244.41;10470365;28;20029;-63
2021/08/19 15:29:47;;;;;;;0.00;0.00;;;;;;;19.33;65.97;101247.50;10469764;28;20028;-64
2021/08/19 15:34:49;;;;;;;0.00;0.00;;;;;;;19.42;66.90;101240.84;10481457;28;20499;-65
2021/08/19 15:39:50;;;;;;;0.10;0.10;;;;;;;19.60;67.80;101253.75;10495288;28;20016;-64
2021/08/19 15:44:52;;;;;;;0.00;0.00;;;;;;;19.74;65.88;101251.91;10495083;28;20044;-63
2021/08/19 15:49:54;;;;;;;0.00;0.00;;;;;;;19.79;66.09;101257.50;10488629;28;20070;-64
2021/08/19 15:54:56;;;;;;;0.00;0.00;;;;;;;19.82;67.47;101258.97;10486997;28;20028;-64
2021/08/19 15:59:59;;;;;;;0.00;0.00;;;;;;;19.67;67.02;101256.50;10488193;28;20253;-64
2021/08/19 16:04:59;;;;;;;0.00;0.00;;;;;;;19.37;65.28;101247.91;10490993;28;20088;-63
2021/08/19 16:10:01;;;;;;;0.10;0.10;;;;;;;19.20;67.40;101258.31;10477648;28;20029;-63
2021/08/19 16:15:02;;;;;;;0.00;0.00;;;;;;;19.15;67.28;101266.19;10495919;28;20033;-61
2021/08/19 16:20:03;;;;;;;0.00;0.00;;;;;;;19.13;68.00;101269.09;10496136;28;20047;-63
2021/08/19 16:25:05;;;;;;;0.00;0.00;;;;;;;19.04;67.73;101272.19;10494686;28;20017;-62
2021/08/19 16:30:06;;;;;;;0.10;0.10;;;;;;;18.90;68.19;101274.84;10495878;28;20390;-62
2021/08/19 16:35:07;;;;;;;0.10;0.10;;;;;;;18.73;67.58;101284.28;10491135;28;20032;-64
2021/08/19 16:40:09;;;;;;;0.10;0.10;;;;;;;18.53;67.51;101290.47;10495373;28;20502;-63
2021/08/19 16:45:10;;;;;;;0.10;0.10;;;;;;;18.37;67.44;101293.47;10494046;28;20054;-63
2021/08/19 16:50:10;;;;;;;0.00;0.00;;;;;;;18.23;68.35;101303.34;10494081;28;20552;-64
2021/08/19 16:55:12;;;;;;;0.00;0.00;;;;;;;18.07;68.96;101307.19;10493642;28;20085;-63
2021/08/19 17:00:14;;;;;;;0.00;0.00;;;;;;;17.92;69.57;101309.16;10493872;28;20027;-64
2021/08/19 17:05:14;;;;;;;0.00;0.00;;;;;;;17.85;70.62;101313.66;10486319;28;20016;-64
2021/08/19 17:10:15;;;;;;;0.10;0.10;;;;;;;17.76;70.75;101314.81;10493761;28;20364;-62
2021/08/19 17:15:17;;;;;;;0.00;0.00;;;;;;;17.65;70.80;101313.47;10492958;28;20486;-63
2021/08/19 17:20:17;;;;;;;0.00;0.00;;;;;;;17.49;71.18;101311.88;10492332;28;20021;-64
2021/08/19 17:25:18;;;;;;;0.00;0.00;;;;;;;17.39;71.45;101314.03;10492724;28;20024;-60
2021/08/19 17:30:18;;;;;;;0.10;0.10;;;;;;;17.31;72.04;101322.28;10492847;28;20016;-61
2021/08/19 17:35:18;;;;;;;0.10;0.10;;;;;;;17.20;70.97;101315.53;10488198;28;20051;-61
2021/08/19 17:40:19;;;;;;;0.00;0.00;;;;;;;17.09;71.67;101319.53;10492765;28;20591;-62
2021/08/19 17:45:19;;;;;;;0.00;0.00;;;;;;;17.00;72.06;101319.84;10491992;28;20395;-62
2021/08/19 17:50:19;;;;;;;0.10;0.10;;;;;;;16.89;72.16;101321.16;10492553;28;20033;-62
2021/08/19 17:55:22;;;;;;;0.10;0.10;;;;;;;16.79;72.69;101328.72;10492205;28;20099;-61
2021/08/19 18:00:23;;;;;;;0.03;0.03;;;;;;;16.69;73.55;101323.56;10492974;28;20035;-62
2021/08/19 18:05:25;;;;;;;0.10;0.10;;;;;;;16.59;73.16;101320.34;10509975;28;20028;-62
2021/08/19 18:10:25;;;;;;;0.10;0.10;;;;;;;16.52;72.99;101325.63;10533750;28;20517;-64
2021/08/19 18:15:25;;;;;;;0.00;0.00;;;;;;;16.44;73.22;101317.66;10533300;28;20024;-64
2021/08/19 18:20:26;;;;;;;0.00;0.00;;;;;;;16.40;74.14;101327.94;10533548;28;20505;-64
2021/08/19 18:25:28;;;;;;;0.10;0.10;;;;;;;16.34;74.87;101328.69;10533567;28;20035;-62
2021/08/19 18:30:28;;;;;;;0.00;0.00;;;;;;;16.29;75.27;101331.09;10517243;28;20297;-63
2021/08/19 18:35:29;;;;;;;0.00;0.00;;;;;;;16.24;75.52;101337.03;10495521;28;20024;-63
2021/08/19 18:40:29;;;;;;;0.10;0.10;;;;;;;16.18;75.97;101331.56;10497273;28;20537;-62
2021/08/19 18:45:30;;;;;;;0.10;0.10;;;;;;;16.11;75.86;101331.44;10498658;28;20088;-63
2021/08/19 18:50:31;;;;;;;0.00;0.00;;;;;;;16.07;75.89;101346.25;10500119;28;20108;-63
2021/08/19 18:55:31;;;;;;;0.10;0.10;;;;;;;16.06;76.23;101347.28;10498983;28;20119;-61
2021/08/19 19:00:32;;;;;;;0.10;0.10;;;;;;;16.03;76.68;101363.78;10497681;28;20065;-64
2021/08/19 19:05:33;;;;;;;0.10;0.10;;;;;;;15.99;77.66;101363.28;10496480;28;20043;-63
2021/08/19 19:10:33;;;;;;;0.00;0.00;;;;;;;15.96;77.65;101362.81;10498466;28;20043;-62
2021/08/19 19:15:34;;;;;;;0.10;0.10;;;;;;;15.91;78.05;101359.84;10497923;28;20780;-63
2021/08/19 19:20:34;;;;;;;0.10;0.10;;;;;;;15.88;78.02;101371.78;10497414;28;20043;-63
2021/08/19 19:25:35;;;;;;;0.10;0.10;;;;;;;15.86;78.03;101365.78;10494334;28;20070;-63
2021/08/19 19:30:35;;;;;;;0.10;0.10;;;;;;;15.82;78.43;101365.31;10489915;28;20024;-62
2021/08/19 19:35:35;;;;;;;0.10;0.10;;;;;;;15.82;78.61;101376.03;10495284;28;20086;-63
2021/08/19 19:40:36;;;;;;;0.10;0.10;;;;;;;15.81;79.24;101385.09;10495544;28;20040;-63
2021/08/19 19:45:36;;;;;;;0.10;0.10;;;;;;;15.79;79.51;101387.13;10495116;28;20086;-63
2021/08/19 19:50:38;;;;;;;0.10;0.10;;;;;;;15.75;79.54;101398.41;10479936;28;20424;-62
2021/08/19 19:55:39;;;;;;;0.00;0.00;;;;;;;15.73;79.86;101401.28;10495160;28;20115;-63
2021/08/19 20:00:39;;;;;;;0.10;0.10;;;;;;;15.70;80.47;101396.25;10491357;28;20111;-63
2021/08/19 20:05:40;;;;;;;0.10;0.10;;;;;;;15.69;80.64;101404.50;10494938;28;20033;-63
2021/08/19 20:10:40;;;;;;;0.10;0.10;;;;;;;15.67;80.17;101398.44;10495101;28;20040;-60
2021/08/19 20:15:41;;;;;;;0.10;0.10;;;;;;;15.65;80.88;101390.59;10465793;28;20024;-62
2021/08/19 20:20:41;;;;;;;0.00;0.00;;;;;;;15.64;80.74;101405.00;10448322;28;20025;-61
2021/08/19 20:25:41;;;;;;;0.10;0.10;;;;;;;15.62;81.36;101401.69;10449431;28;20021;-61
2021/08/19 20:30:42;;;;;;;0.10;0.10;;;;;;;15.57;80.90;101399.50;10482850;28;20021;-62
2021/08/19 20:35:42;;;;;;;0.10;0.10;;;;;;;15.58;81.21;101395.81;10492847;28;20035;-61
2021/08/19 20:40:43;;;;;;;0.00;0.00;;;;;;;15.56;81.49;101399.69;10492498;28;20023;-63
2021/08/19 20:45:43;;;;;;;0.10;0.10;;;;;;;15.55;81.48;101403.38;10471766;28;20483;-63
2021/08/19 20:50:44;;;;;;;0.10;0.10;;;;;;;15.52;82.04;101409.13;10492447;28;20507;-62
2021/08/19 20:55:44;;;;;;;0.10;0.10;;;;;;;15.49;82.71;101412.16;10449287;28;20029;-63
2021/08/19 21:00:44;;;;;;;0.00;0.00;;;;;;;15.43;83.30;101412.88;10485988;28;20031;-63
2021/08/19 21:05:44;;;;;;;0.00;0.00;;;;;;;15.34;83.51;101415.59;10464417;28;20375;-63
2021/08/19 21:10:45;;;;;;;0.10;0.10;;;;;;;15.27;83.87;101422.69;10478292;22;20056;-59
2021/08/19 21:15:45;;;;;;;0.00;0.00;;;;;;;15.23;84.01;101424.03;10512179;28;20074;-58
2021/08/19 21:20:45;;;;;;;0.10;0.10;;;;;;;15.21;84.30;101430.56;10504836;28;20099;-60
2021/08/19 21:25:46;;;;;;;0.10;0.10;;;;;;;15.19;84.96;101428.09;10496894;28;20394;-60
2021/08/19 21:30:46;;;;;;;0.10;0.10;;;;;;;15.16;85.07;101431.94;10491854;28;20044;-59
2021/08/19 21:35:46;;;;;;;0.00;0.00;;;;;;;15.17;85.10;101435.47;10491821;28;20046;-60
2021/08/19 21:40:48;;;;;;;0.10;0.10;;;;;;;15.17;84.54;101440.84;10495202;28;20043;-58
2021/08/19 21:45:48;;;;;;;0.10;0.10;;;;;;;15.17;85.03;101436.31;10492022;28;20258;-59
2021/08/19 21:50:49;;;;;;;0.10;0.10;;;;;;;15.17;84.54;101440.84;10493395;28;20016;-56
2021/08/19 21:55:49;;;;;;;0.10;0.10;;;;;;;15.17;84.47;101448.88;10495753;28;20099;-61
2021/08/19 22:00:49;;;;;;;0.10;0.10;;;;;;;15.17;84.34;101451.56;10491282;28;20830;-58
2021/08/19 22:05:50;;;;;;;0.10;0.10;;;;;;;15.16;84.46;101452.59;10495188;28;20119;-60
2021/08/19 22:10:50;;;;;;;0.00;0.00;;;;;;;15.15;84.06;101458.94;10497681;28;20021;-59
2021/08/19 22:15:51;;;;;;;0.10;0.10;;;;;;;15.14;84.13;101458.13;10529219;28;20110;-59
2021/08/19 22:20:51;;;;;;;0.10;0.10;;;;;;;15.15;83.55;101451.75;10532097;28;20012;-57
2021/08/19 22:25:51;;;;;;;0.10;0.10;;;;;;;15.16;83.61;101449.91;10531941;28;20039;-60
2021/08/19 22:30:52;;;;;;;0.10;0.10;;;;;;;15.17;84.20;101448.88;10512943;28;20059;-59
2021/08/19 22:35:52;;;;;;;0.10;0.10;;;;;;;15.15;83.93;101450.91;10489902;28;20020;-59
2021/08/19 22:40:52;;;;;;;0.10;0.10;;;;;;;15.14;84.22;101455.44;10516095;28;20030;-58
2021/08/19 22:45:53;;;;;;;0.10;0.10;;;;;;;15.12;85.30;101453.94;10531527;28;20123;-59
2021/08/19 22:50:53;;;;;;;0.10;0.10;;;;;;;15.09;86.27;101465.84;10501669;28;20028;-59
2021/08/19 22:55:54;;;;;;;0.08;0.08;;;;;;;15.04;86.41;101457.50;10504919;28;20032;-58
2021/08/19 23:00:54;;;;;;;0.10;0.10;;;;;;;15.00;86.32;101464.19;10507127;28;20499;-59
2021/08/19 23:05:54;;;;;;;0.10;0.10;;;;;;;14.97;86.54;101461.88;10489388;28;20317;-58